Time;durP1;ratioP1;P1;durP2;ratioP2;P2;SDS_P1;SDS_P2;PMS_P1;PMS_P2;Temp;Humidity;BMP_temperature;BMP_pressure;BME280_temperature;BME280_humidity;BME280_pressure;Samples;Min_cycle;Max_cycle;Signal;HPM_P1;HPM_P2
2023/11/08 00:02:12;;;;;;;2.30;1.80;;;;;;;4.91;100.00;152624.78;4970205;28;20454;-76
2023/11/08 00:04:40;;;;;;;5.07;2.50;;;;;;;4.91;100.00;152624.78;4967605;28;20505;-75
2023/11/08 00:07:06;;;;;;;2.40;1.70;;;;;;;4.89;100.00;152619.66;4965152;28;20549;-76
2023/11/08 00:09:34;;;;;;;2.13;1.67;;;;;;;4.88;100.00;152617.06;4947881;28;20462;-76
2023/11/08 00:12:01;;;;;;;3.07;1.80;;;;;;;4.88;100.00;152615.75;4964372;28;20486;-76
2023/11/08 00:14:27;;;;;;;2.47;2.10;;;;;;;4.87;100.00;152614.47;4964612;28;20851;-76
2023/11/08 00:16:55;;;;;;;1.93;1.63;;;;;;;4.86;100.00;152611.91;4966788;28;21160;-76
2023/11/08 00:19:22;;;;;;;2.10;1.70;;;;;;;4.85;100.00;152609.31;4977616;28;20512;-76
2023/11/08 00:21:50;;;;;;;3.03;2.03;;;;;;;4.86;100.00;152611.91;4960802;28;20838;-76
2023/11/08 00:24:18;;;;;;;2.40;2.10;;;;;;;4.90;100.00;152620.91;4971482;28;20877;-75
2023/11/08 00:26:44;;;;;;;2.57;1.90;;;;;;;4.92;100.00;152627.34;4967887;28;20451;-76
2023/11/08 00:29:11;;;;;;;2.60;2.20;;;;;;;4.95;100.00;152633.78;4969425;28;20454;-76
2023/11/08 00:31:38;;;;;;;2.90;1.80;;;;;;;4.97;100.00;152638.97;4952651;28;20446;-76
2023/11/08 00:34:04;;;;;;;3.70;2.60;;;;;;;4.99;100.00;152644.13;4969252;28;20496;-76
2023/11/08 00:36:31;;;;;;;3.50;2.63;;;;;;;5.03;100.00;152654.41;4967590;28;20969;-75
2023/11/08 00:38:59;;;;;;;5.07;2.77;;;;;;;5.07;100.00;152663.44;4984362;28;20464;-76
2023/11/08 00:41:25;;;;;;;3.83;2.40;;;;;;;5.09;100.00;152668.59;4966451;28;20449;-76
2023/11/08 00:43:55;;;;;;;4.70;2.93;;;;;;;5.10;100.00;152672.47;4983423;28;20485;-76
2023/11/08 00:46:22;;;;;;;3.17;2.17;;;;;;;5.13;100.00;152678.94;4989819;28;20444;-76
2023/11/08 00:48:49;;;;;;;5.40;2.80;;;;;;;5.15;100.00;152685.38;4985508;28;20878;-76
2023/11/08 00:51:15;;;;;;;2.33;1.90;;;;;;;5.18;100.00;152693.09;4984399;28;20469;-76
2023/11/08 00:53:42;;;;;;;3.47;2.37;;;;;;;5.21;100.00;152700.84;4981812;28;20468;-76
2023/11/08 00:56:11;;;;;;;4.47;2.20;;;;;;;5.25;100.00;152709.84;4955989;28;20453;-76
2023/11/08 00:58:38;;;;;;;2.67;1.73;;;;;;;5.29;100.00;152720.19;4970832;28;20568;-76
2023/11/08 01:01:05;;;;;;;2.40;1.80;;;;;;;5.30;100.00;152722.72;4988450;28;20457;-76
2023/11/08 01:03:32;;;;;;;1.87;1.60;;;;;;;5.32;100.00;152729.16;4988702;28;20458;-76
2023/11/08 01:05:58;;;;;;;2.97;2.00;;;;;;;5.35;100.00;152735.63;4980697;28;20532;-76
2023/11/08 01:08:25;;;;;;;3.30;1.80;;;;;;;5.35;100.00;152735.63;4955761;28;20453;-76
2023/11/08 01:10:52;;;;;;;3.53;2.00;;;;;;;5.37;100.00;152740.81;4970622;28;20445;-76
2023/11/08 01:13:20;;;;;;;3.20;1.63;;;;;;;5.36;100.00;152738.22;4982587;28;20462;-76
2023/11/08 01:15:47;;;;;;;3.90;1.50;;;;;;;5.38;100.00;152743.34;4965563;28;20445;-76
2023/11/08 01:18:14;;;;;;;3.23;2.17;;;;;;;5.35;100.00;152736.91;4979469;28;20548;-75
2023/11/08 01:20:41;;;;;;;1.90;1.40;;;;;;;5.37;100.00;152740.81;4966569;28;20974;-76
2023/11/08 01:23:08;;;;;;;2.20;1.67;;;;;;;5.33;100.00;152730.47;4971659;28;20446;-76
2023/11/08 01:25:35;;;;;;;4.47;1.60;;;;;;;5.34;100.00;152734.38;4954736;28;20523;-76
2023/11/08 01:28:01;;;;;;;2.80;1.93;;;;;;;5.34;100.00;152733.06;4986497;28;20457;-76
2023/11/08 01:30:29;;;;;;;1.50;1.40;;;;;;;5.31;100.00;152726.63;4979279;28;20477;-75
2023/11/08 01:32:57;;;;;;;2.40;1.50;;;;;;;5.31;100.00;152725.31;4981240;28;20943;-76
2023/11/08 01:35:22;;;;;;;2.60;1.87;;;;;;;5.30;100.00;152722.72;4988166;28;20535;-76
2023/11/08 01:37:49;;;;;;;2.60;1.50;;;;;;;5.29;100.00;152720.19;4970898;28;20567;-76
2023/11/08 01:40:18;;;;;;;1.80;1.50;;;;;;;5.30;100.00;152724.03;4950595;28;20639;-75
2023/11/08 01:42:44;;;;;;;1.83;1.47;;;;;;;5.32;100.00;152729.16;4981227;28;20547;-76
2023/11/08 01:45:11;;;;;;;3.60;1.70;;;;;;;5.33;100.00;152731.78;4973170;28;20478;-76
2023/11/08 01:47:39;;;;;;;3.50;1.50;;;;;;;5.33;100.00;152730.47;4970166;28;20457;-76
2023/11/08 01:50:09;;;;;;;2.33;1.53;;;;;;;5.32;100.00;152727.91;4953688;28;20465;-76
2023/11/08 01:52:36;;;;;;;1.67;1.30;;;;;;;5.30;100.00;152724.03;4964182;28;20530;-76
2023/11/08 01:55:04;;;;;;;2.40;1.50;;;;;;;5.29;100.00;152720.19;4982259;28;20458;-76
2023/11/08 01:57:30;;;;;;;3.60;1.83;;;;;;;5.28;100.00;152717.59;4967875;28;20480;-76
2023/11/08 01:59:58;;;;;;;2.67;1.70;;;;;;;5.24;100.00;152707.28;4971340;28;20457;-76
2023/11/08 02:02:25;;;;;;;3.00;1.50;;;;;;;5.23;100.00;152704.69;4993868;28;20448;-76
2023/11/08 02:04:54;;;;;;;2.20;1.33;;;;;;;5.21;100.00;152700.84;4960317;28;20486;-76
2023/11/08 02:07:21;;;;;;;2.53;1.30;;;;;;;5.21;100.00;152700.84;4985352;28;20520;-76
2023/11/08 02:09:48;;;;;;;3.43;1.30;;;;;;;5.22;100.00;152702.09;4982811;28;20987;-76
2023/11/08 02:12:14;;;;;;;3.50;1.60;;;;;;;5.23;100.00;152704.69;4949951;28;20512;-76
2023/11/08 02:14:59;;;;;;;2.73;1.60;;;;;;;5.21;100.00;152699.56;4969632;28;20918;-76
2023/11/08 02:17:25;;;;;;;2.23;1.20;;;;;;;5.19;100.00;152694.41;4988902;28;20473;-76
2023/11/08 02:19:53;;;;;;;2.57;1.47;;;;;;;5.17;100.00;152690.50;4980559;28;20829;-76
2023/11/08 02:22:20;;;;;;;1.60;1.30;;;;;;;5.18;100.00;152691.81;4962440;28;20463;-75
2023/11/08 02:24:48;;;;;;;2.43;1.30;;;;;;;5.15;100.00;152684.06;4962522;28;20488;-75
2023/11/08 02:27:14;;;;;;;1.80;1.20;;;;;;;5.13;100.00;152678.94;4968162;28;20441;-76
2023/11/08 02:29:41;;;;;;;2.23;1.73;;;;;;;5.13;100.00;152678.94;4982293;28;20465;-76
2023/11/08 02:32:09;;;;;;;1.83;1.33;;;;;;;5.11;100.00;152673.78;4983808;28;20556;-76
2023/11/08 02:34:35;;;;;;;3.17;1.43;;;;;;;5.08;100.00;152666.03;4978031;28;20461;-76
2023/11/08 02:37:02;;;;;;;2.90;1.23;;;;;;;5.06;100.00;152660.84;4981357;28;20486;-75
2023/11/08 02:39:29;;;;;;;3.80;1.40;;;;;;;5.05;100.00;152659.59;4969498;28;20450;-76
2023/11/08 02:41:57;;;;;;;2.30;1.53;;;;;;;5.06;100.00;152660.84;4966675;28;20485;-75
2023/11/08 02:44:26;;;;;;;1.90;1.40;;;;;;;5.08;100.00;152666.03;4982630;28;20491;-75
2023/11/08 02:46:52;;;;;;;1.93;1.10;;;;;;;5.09;100.00;152668.59;4983375;28;20948;-76
2023/11/08 02:49:19;;;;;;;3.27;1.40;;;;;;;5.08;100.00;152666.03;4986196;28;20450;-76
2023/11/08 02:51:46;;;;;;;2.70;1.30;;;;;;;5.06;100.00;152662.16;4961149;28;20548;-75
2023/11/08 02:54:13;;;;;;;1.70;1.27;;;;;;;5.09;100.00;152669.88;4986764;28;20820;-76
2023/11/08 02:56:40;;;;;;;2.00;1.30;;;;;;;5.09;100.00;152669.88;4952408;28;20524;-76
2023/11/08 02:59:09;;;;;;;2.30;1.70;;;;;;;5.08;100.00;152666.03;4963729;28;20461;-76
2023/11/08 03:01:37;;;;;;;2.40;1.23;;;;;;;5.06;100.00;152660.84;4987220;28;20440;-75
2023/11/08 03:04:04;;;;;;;2.50;1.37;;;;;;;5.05;100.00;152658.31;4968729;28;20454;-76
2023/11/08 03:06:32;;;;;;;3.27;1.63;;;;;;;5.05;100.00;152658.31;4987182;28;20820;-76
2023/11/08 03:08:59;;;;;;;2.40;1.60;;;;;;;5.03;100.00;152654.41;4970846;28;20445;-76
2023/11/08 03:11:26;;;;;;;1.90;1.40;;;;;;;5.03;100.00;152653.16;4974759;28;20449;-76
2023/11/08 03:13:52;;;;;;;2.40;1.40;;;;;;;5.00;100.00;152645.41;4952807;28;21074;-75
2023/11/08 03:16:21;;;;;;;1.80;1.37;;;;;;;5.02;100.00;152651.84;4964699;28;20496;-76
2023/11/08 03:18:48;;;;;;;1.70;1.37;;;;;;;5.04;100.00;152655.69;4984615;28;20472;-76
2023/11/08 03:21:15;;;;;;;3.60;1.83;;;;;;;5.08;100.00;152666.03;4978185;28;20442;-75
2023/11/08 03:23:41;;;;;;;2.33;1.50;;;;;;;5.10;100.00;152671.19;4971459;28;20553;-76
2023/11/08 03:26:08;;;;;;;4.53;2.10;;;;;;;5.09;100.00;152668.59;4964027;28;20473;-76
2023/11/08 03:28:35;;;;;;;2.20;1.67;;;;;;;5.07;100.00;152663.44;4986176;28;20468;-76
2023/11/08 03:31:01;;;;;;;3.13;2.00;;;;;;;5.04;100.00;152657.00;4970283;28;20588;-76
2023/11/08 03:33:30;;;;;;;2.77;1.63;;;;;;;5.04;100.00;152655.69;4982468;28;20453;-76
2023/11/08 03:35:56;;;;;;;2.60;1.57;;;;;;;5.01;100.00;152649.25;4987797;28;20441;-76
2023/11/08 03:38:23;;;;;;;3.27;1.80;;;;;;;4.99;100.00;152644.13;4985058;28;20881;-76
2023/11/08 03:40:49;;;;;;;2.20;1.50;;;;;;;4.97;100.00;152637.69;4988351;28;20545;-76
2023/11/08 03:43:18;;;;;;;1.43;1.30;;;;;;;4.95;100.00;152633.78;4970286;28;20457;-75
2023/11/08 03:45:44;;;;;;;1.97;1.77;;;;;;;4.95;100.00;152632.53;4988181;28;20472;-76
2023/11/08 03:48:11;;;;;;;1.53;1.30;;;;;;;4.97;100.00;152638.97;4972135;28;20457;-75
2023/11/08 03:50:39;;;;;;;2.20;1.40;;;;;;;4.99;100.00;152642.81;4989532;28;20457;-75
2023/11/08 03:53:06;;;;;;;2.80;1.87;;;;;;;4.98;100.00;152640.28;4991521;28;21277;-76
2023/11/08 03:55:32;;;;;;;2.60;1.50;;;;;;;4.99;100.00;152644.13;4990683;28;20452;-76
2023/11/08 03:58:01;;;;;;;2.73;1.80;;;;;;;5.00;100.00;152645.41;4991642;28;20484;-76
2023/11/08 04:00:27;;;;;;;1.93;1.60;;;;;;;5.03;100.00;152654.41;4989319;28;20460;-76
2023/11/08 04:02:54;;;;;;;2.73;1.57;;;;;;;5.05;100.00;152658.31;4991324;28;20457;-75
2023/11/08 04:05:21;;;;;;;3.20;1.57;;;;;;;5.04;100.00;152655.69;4957983;28;20557;-76
2023/11/08 04:07:48;;;;;;;3.67;1.63;;;;;;;5.06;100.00;152660.84;4970851;28;20551;-76
2023/11/08 04:10:16;;;;;;;2.70;1.83;;;;;;;5.08;100.00;152666.03;4972779;28;20462;-75
2023/11/08 04:12:43;;;;;;;3.03;2.00;;;;;;;5.10;100.00;152671.19;4972100;28;20443;-76
2023/11/08 04:15:10;;;;;;;2.60;1.57;;;;;;;5.10;100.00;152671.19;4972657;28;20453;-76
2023/11/08 04:17:37;;;;;;;3.40;1.70;;;;;;;5.10;100.00;152672.47;4991154;28;20540;-76
2023/11/08 04:20:04;;;;;;;2.40;1.80;;;;;;;5.11;100.00;152673.78;4987382;28;20468;-76
2023/11/08 04:22:31;;;;;;;4.00;1.93;;;;;;;5.12;100.00;152677.63;4956724;28;20457;-75
2023/11/08 04:24:59;;;;;;;3.30;1.90;;;;;;;5.15;100.00;152684.06;4970862;28;20470;-76
2023/11/08 04:27:26;;;;;;;4.60;1.60;;;;;;;5.17;100.00;152689.22;4990098;28;20445;-76
2023/11/08 04:29:52;;;;;;;1.80;1.50;;;;;;;5.16;100.00;152686.66;4973774;28;21098;-75
2023/11/08 04:32:19;;;;;;;2.30;1.97;;;;;;;5.17;100.00;152689.22;4973397;28;21047;-75
2023/11/08 04:34:48;;;;;;;2.27;1.80;;;;;;;5.18;100.00;152691.81;4971122;28;20456;-76
2023/11/08 04:37:15;;;;;;;3.90;1.87;;;;;;;5.19;100.00;152694.41;4967530;28;20485;-76
2023/11/08 04:39:46;;;;;;;3.93;2.17;;;;;;;5.21;100.00;152699.56;4985803;28;21000;-76
2023/11/08 04:42:14;;;;;;;4.00;1.90;;;;;;;5.22;100.00;152703.41;4988182;28;20477;-76
2023/11/08 04:44:41;;;;;;;5.03;1.87;;;;;;;5.23;100.00;152704.69;4971380;28;20879;-75
2023/11/08 04:47:08;;;;;;;3.77;1.80;;;;;;;5.23;100.00;152704.69;4986624;28;20469;-75
2023/11/08 04:49:35;;;;;;;3.27;1.70;;;;;;;5.24;100.00;152707.28;4955581;28;20462;-75
2023/11/08 04:52:01;;;;;;;2.67;1.90;;;;;;;5.26;100.00;152713.75;4973389;28;20457;-75
2023/11/08 04:54:28;;;;;;;3.30;2.00;;;;;;;5.27;100.00;152715.03;4988023;28;20453;-76
2023/11/08 04:56:55;;;;;;;3.97;2.00;;;;;;;5.29;100.00;152720.19;4969692;28;20809;-75
2023/11/08 04:59:23;;;;;;;2.70;1.97;;;;;;;5.30;100.00;152722.72;4981327;28;20461;-76
2023/11/08 05:01:49;;;;;;;3.17;2.00;;;;;;;5.32;100.00;152727.91;4976758;28;20445;-75
2023/11/08 05:04:15;;;;;;;3.23;2.10;;;;;;;5.33;100.00;152731.78;4982992;28;20462;-76
2023/11/08 05:06:42;;;;;;;2.97;1.70;;;;;;;5.35;100.00;152735.63;4973490;28;20808;-75
2023/11/08 05:09:09;;;;;;;3.80;2.90;;;;;;;5.37;100.00;152740.81;4977804;28;20507;-75
2023/11/08 05:11:36;;;;;;;2.90;1.90;;;;;;;5.36;100.00;152738.22;4989191;28;20446;-75
2023/11/08 05:17:20;;;;;;;2.70;1.97;;;;;;;5.36;100.00;152738.22;4950149;28;20450;-75
2023/11/08 05:19:46;;;;;;;3.20;2.20;;;;;;;5.33;100.00;152730.47;4991020;28;20454;-75
2023/11/08 05:22:13;;;;;;;2.77;1.90;;;;;;;5.31;100.00;152726.63;4987519;28;20473;-75
2023/11/08 05:24:39;;;;;;;2.50;2.03;;;;;;;5.30;100.00;152722.72;4990433;28;21051;-76
2023/11/08 05:27:06;;;;;;;3.23;2.00;;;;;;;5.27;100.00;152716.28;4984666;28;20488;-75
2023/11/08 05:29:33;;;;;;;3.03;1.97;;;;;;;5.25;100.00;152709.84;4985368;28;21036;-75
2023/11/08 05:32:01;;;;;;;3.43;2.17;;;;;;;5.20;100.00;152698.25;4979193;28;20458;-75
2023/11/08 05:34:29;;;;;;;2.10;1.90;;;;;;;5.17;100.00;152689.22;4972640;28;20980;-75
2023/11/08 05:36:56;;;;;;;2.37;1.80;;;;;;;5.14;100.00;152681.47;4988161;28;20488;-75
2023/11/08 05:39:24;;;;;;;3.10;2.40;;;;;;;5.09;100.00;152669.88;4978788;28;20523;-75
2023/11/08 05:41:52;;;;;;;3.27;2.10;;;;;;;5.09;100.00;152669.88;4969785;28;20998;-75
2023/11/08 05:44:20;;;;;;;3.60;2.10;;;;;;;5.06;100.00;152660.84;4965797;28;20996;-75
2023/11/08 05:46:48;;;;;;;2.60;2.30;;;;;;;5.04;100.00;152655.69;4963723;28;20473;-74
2023/11/08 05:49:18;;;;;;;3.77;2.30;;;;;;;5.03;100.00;152653.16;4969590;28;20462;-75
2023/11/08 05:51:50;;;;;;;4.40;2.43;;;;;;;5.02;100.00;152650.56;4982225;28;20468;-75
2023/11/08 05:54:16;;;;;;;2.70;2.00;;;;;;;4.99;100.00;152642.81;4966798;28;20968;-74
2023/11/08 05:56:43;;;;;;;2.87;2.27;;;;;;;4.99;100.00;152642.81;4984864;28;20560;-75
2023/11/08 05:59:10;;;;;;;4.30;1.97;;;;;;;4.95;100.00;152633.78;4988276;28;20457;-75
2023/11/08 06:01:36;;;;;;;3.57;2.70;;;;;;;4.94;100.00;152631.22;4970100;28;20461;-75
2023/11/08 06:04:03;;;;;;;3.43;2.43;;;;;;;4.90;100.00;152620.91;4968213;28;20457;-75
2023/11/08 06:06:30;;;;;;;4.07;2.37;;;;;;;4.89;100.00;152618.34;4978613;28;20477;-75
2023/11/08 06:08:58;;;;;;;2.80;2.20;;;;;;;4.85;100.00;152608.03;4967774;28;20462;-75
2023/11/08 06:11:26;;;;;;;3.80;2.20;;;;;;;4.84;100.00;152605.47;4962591;28;20519;-75
2023/11/08 06:13:53;;;;;;;3.50;3.03;;;;;;;4.83;100.00;152604.16;4963806;28;20461;-75
2023/11/08 06:16:20;;;;;;;3.30;3.00;;;;;;;4.81;100.00;152599.03;4973002;28;20453;-75
2023/11/08 06:18:47;;;;;;;4.60;3.17;;;;;;;4.80;100.00;152596.44;4979194;28;20458;-75
2023/11/08 06:21:14;;;;;;;5.87;3.10;;;;;;;4.80;100.00;152596.44;4982873;28;20461;-75
2023/11/08 06:23:41;;;;;;;3.67;2.80;;;;;;;4.78;100.00;152591.28;4967079;28;20470;-75
2023/11/08 06:26:09;;;;;;;3.93;3.10;;;;;;;4.77;100.00;152587.41;4966899;28;20477;-75
2023/11/08 06:28:35;;;;;;;3.77;3.33;;;;;;;4.77;100.00;152588.69;4981930;28;20469;-75
2023/11/08 06:31:02;;;;;;;4.00;2.83;;;;;;;4.79;100.00;152592.59;4980056;28;20470;-76
2023/11/08 06:33:28;;;;;;;3.07;2.47;;;;;;;4.79;100.00;152593.84;4966462;28;20477;-75
2023/11/08 06:35:55;;;;;;;6.27;4.63;;;;;;;4.78;100.00;152591.28;4978736;28;20445;-75
2023/11/08 06:38:21;;;;;;;4.23;3.80;;;;;;;4.78;100.00;152591.28;4986137;28;20489;-75
2023/11/08 06:40:48;;;;;;;3.30;2.90;;;;;;;4.78;100.00;152591.28;4964980;28;20454;-75
2023/11/08 06:43:19;;;;;;;3.40;2.67;;;;;;;4.78;100.00;152591.28;4958572;28;20841;-75
2023/11/08 06:45:48;;;;;;;3.60;2.97;;;;;;;4.79;100.00;152592.59;4980860;28;20473;-75
2023/11/08 06:48:15;;;;;;;3.03;2.67;;;;;;;4.80;100.00;152595.13;4966462;28;21122;-75
2023/11/08 06:50:43;;;;;;;5.03;2.90;;;;;;;4.80;100.00;152596.44;4966515;28;20524;-75
2023/11/08 06:53:10;;;;;;;4.70;3.10;;;;;;;4.81;100.00;152599.03;4958181;28;20480;-75
2023/11/08 06:55:37;;;;;;;2.90;2.30;;;;;;;4.80;100.00;152596.44;4965717;28;20511;-75
2023/11/08 06:58:10;;;;;;;5.27;3.00;;;;;;;4.92;100.00;152627.34;4985295;28;20449;-75
2023/11/08 07:00:39;;;;;;;3.87;2.63;;;;;;;5.39;100.00;152745.94;4965432;28;20449;-75
2023/11/08 07:03:06;;;;;;;7.40;2.40;;;;;;;5.37;100.00;152740.81;4963287;28;20449;-75
2023/11/08 07:05:32;;;;;;;3.63;2.87;;;;;;;5.28;100.00;152717.59;4982414;28;20465;-75
2023/11/08 07:07:59;;;;;;;3.90;2.67;;;;;;;5.32;100.00;152727.91;4961305;28;20457;-75
2023/11/08 07:10:26;;;;;;;3.67;2.50;;;;;;;5.45;100.00;152762.69;4964825;28;20449;-76
2023/11/08 07:12:53;;;;;;;3.00;2.70;;;;;;;6.40;100.00;153003.97;4978025;28;20497;-75
2023/11/08 07:15:20;;;;;;;4.20;3.13;;;;;;;7.03;100.00;153166.59;4964183;28;20460;-76
2023/11/08 07:17:48;;;;;;;2.80;2.37;;;;;;;7.66;100.00;153328.00;4985774;28;20524;-76
2023/11/08 07:20:15;;;;;;;3.80;2.43;;;;;;;8.04;100.00;153423.63;4984439;28;20487;-76
2023/11/08 07:22:42;;;;;;;5.40;2.30;;;;;;;8.19;100.00;153463.66;4982710;28;20462;-75
2023/11/08 07:25:09;;;;;;;6.30;3.10;;;;;;;8.53;100.00;153551.59;4962158;28;20453;-75
2023/11/08 07:27:36;;;;;;;3.20;2.40;;;;;;;8.93;100.00;153652.44;4983529;28;20488;-75
2023/11/08 07:30:03;;;;;;;4.07;2.97;;;;;;;9.34;100.00;153758.50;4986382;28;20453;-76
2023/11/08 07:32:30;;;;;;;3.10;2.33;;;;;;;9.48;99.57;153793.41;4969890;28;20519;-75
2023/11/08 07:34:58;;;;;;;2.63;2.40;;;;;;;9.17;97.82;153714.50;4969114;28;20762;-74
2023/11/08 07:37:25;;;;;;;2.80;1.90;;;;;;;8.62;98.34;153572.28;4966534;28;20943;-76
2023/11/08 07:39:51;;;;;;;3.77;2.60;;;;;;;8.16;100.00;153455.91;4963378;28;20574;-76
2023/11/08 07:42:18;;;;;;;2.87;2.33;;;;;;;7.81;100.00;153365.50;4959058;28;20465;-76
2023/11/08 07:44:44;;;;;;;2.13;1.80;;;;;;;7.57;100.00;153303.47;4963129;28;20846;-76
2023/11/08 07:47:11;;;;;;;2.77;2.37;;;;;;;7.39;100.00;153257.00;4946921;28;20482;-76
2023/11/08 07:49:38;;;;;;;1.97;1.70;;;;;;;7.27;100.00;153227.28;4965936;28;20549;-76
2023/11/08 07:52:06;;;;;;;4.20;1.90;;;;;;;7.16;100.00;153200.16;4964641;28;20538;-76
2023/11/08 07:54:35;;;;;;;3.77;1.70;;;;;;;7.07;100.00;153176.91;4960660;28;20795;-76
2023/11/08 07:57:01;;;;;;;3.80;2.23;;;;;;;6.97;100.00;153151.09;4968055;28;20553;-76
2023/11/08 07:59:28;;;;;;;2.37;1.80;;;;;;;6.95;100.00;153145.94;4964894;28;20505;-77
2023/11/08 08:01:54;;;;;;;6.87;2.33;;;;;;;6.93;100.00;153139.47;4962405;28;20517;-77
2023/11/08 08:04:21;;;;;;;5.37;2.10;;;;;;;6.92;100.00;153138.19;4959792;28;20926;-76
2023/11/08 08:06:48;;;;;;;3.73;2.30;;;;;;;6.90;100.00;153133.03;4959974;28;20493;-76
2023/11/08 08:09:17;;;;;;;3.50;1.97;;;;;;;6.91;100.00;153134.34;4962377;28;20470;-76
2023/11/08 08:11:47;;;;;;;2.10;1.83;;;;;;;6.96;100.00;153148.53;4954644;28;20455;-76
2023/11/08 08:14:14;;;;;;;4.20;2.00;;;;;;;6.94;100.00;153143.34;4968020;28;20517;-76
2023/11/08 08:16:40;;;;;;;3.07;1.90;;;;;;;6.97;100.00;153149.78;4968140;28;20456;-76
2023/11/08 08:19:08;;;;;;;2.23;1.50;;;;;;;6.97;100.00;153151.09;4968008;28;20568;-76
2023/11/08 08:21:35;;;;;;;3.30;1.70;;;;;;;7.01;100.00;153161.44;4968265;28;21056;-76
2023/11/08 08:24:02;;;;;;;2.50;1.60;;;;;;;7.05;100.00;153171.75;4967539;28;20474;-76
2023/11/08 08:26:30;;;;;;;2.50;1.83;;;;;;;7.14;100.00;153193.72;4960299;28;20482;-76
2023/11/08 08:28:56;;;;;;;3.40;1.87;;;;;;;7.21;100.00;153213.06;4965374;28;20955;-77
2023/11/08 08:31:23;;;;;;;2.97;1.77;;;;;;;7.26;100.00;153225.97;4962007;28;20552;-76
2023/11/08 08:33:50;;;;;;;2.43;1.90;;;;;;;7.35;100.00;153249.25;4983536;28;20455;-77
2023/11/08 08:36:17;;;;;;;2.67;1.47;;;;;;;7.39;100.00;153257.00;4957578;28;20450;-76
2023/11/08 08:38:44;;;;;;;2.47;1.40;;;;;;;7.46;100.00;153275.06;4975666;28;20834;-76
2023/11/08 08:41:11;;;;;;;2.10;1.30;;;;;;;7.52;100.00;153290.56;4964315;28;20453;-76
2023/11/08 08:43:38;;;;;;;3.00;1.97;;;;;;;7.63;100.00;153318.94;4945803;28;20458;-76
2023/11/08 08:46:05;;;;;;;6.37;1.60;;;;;;;7.67;100.00;153329.31;4964520;28;20516;-76
2023/11/08 08:48:31;;;;;;;3.63;1.20;;;;;;;7.68;100.00;153333.16;4958617;28;20477;-76
2023/11/08 08:50:58;;;;;;;2.50;1.27;;;;;;;7.72;100.00;153342.22;4961178;28;20455;-77
2023/11/08 08:53:25;;;;;;;2.47;1.10;;;;;;;7.75;100.00;153349.97;4967107;28;20461;-76
2023/11/08 08:55:51;;;;;;;2.43;1.33;;;;;;;7.78;100.00;153357.72;4965657;28;20486;-76
2023/11/08 08:58:18;;;;;;;3.83;0.90;;;;;;;7.77;100.00;153355.13;4957407;28;20474;-77
2023/11/08 09:00:46;;;;;;;5.90;1.30;;;;;;;7.78;100.00;153357.72;4959990;28;20447;-76
2023/11/08 09:03:14;;;;;;;1.80;1.00;;;;;;;7.84;100.00;153373.19;4983317;28;20478;-76
2023/11/08 09:05:41;;;;;;;2.23;1.50;;;;;;;7.90;100.00;153388.72;4966923;28;20446;-76
2023/11/08 09:08:08;;;;;;;3.90;1.33;;;;;;;7.89;100.00;153386.13;4965703;28;20934;-77
2023/11/08 09:10:34;;;;;;;1.60;1.00;;;;;;;7.93;100.00;153396.47;4964700;28;20462;-84
2023/11/08 09:13:01;;;;;;;2.50;1.20;;;;;;;7.95;100.00;153402.94;4961038;28;20493;-85
2023/11/08 09:15:30;;;;;;;2.50;1.10;;;;;;;7.96;100.00;153405.53;4955432;28;20451;-84
2023/11/08 09:17:58;;;;;;;1.90;1.20;;;;;;;7.98;100.00;153409.41;4963718;28;20450;-84
2023/11/08 09:20:25;;;;;;;1.23;1.13;;;;;;;8.06;100.00;153428.75;4961931;28;20458;-84
2023/11/08 09:22:52;;;;;;;1.93;0.90;;;;;;;8.08;100.00;153433.94;4958931;28;20505;-84
2023/11/08 09:25:19;;;;;;;3.77;1.00;;;;;;;8.08;100.00;153435.22;4964529;28;20473;-84
2023/11/08 09:27:46;;;;;;;1.30;0.97;;;;;;;8.10;100.00;153440.38;4967455;28;20587;-84
2023/11/08 09:30:13;;;;;;;2.00;1.20;;;;;;;8.14;100.00;153449.44;4959866;28;20458;-84
2023/11/08 09:32:39;;;;;;;1.87;0.93;;;;;;;8.15;100.00;153453.34;4967912;28;20828;-84
2023/11/08 09:35:09;;;;;;;2.27;1.40;;;;;;;8.13;100.00;153446.88;4967074;28;20541;-84
2023/11/08 09:37:36;;;;;;;3.10;1.20;;;;;;;8.16;100.00;153455.91;4952294;28;20871;-85
2023/11/08 09:40:04;;;;;;;2.07;1.10;;;;;;;8.16;100.00;153454.59;4966137;28;20937;-84
2023/11/08 09:42:32;;;;;;;1.93;0.93;;;;;;;8.21;100.00;153467.50;4965745;28;20541;-84
2023/11/08 09:45:00;;;;;;;4.70;1.47;;;;;;;8.22;100.00;153470.13;4958984;28;20447;-85
2023/11/08 09:47:27;;;;;;;1.43;0.97;;;;;;;8.27;100.00;153483.09;4951664;28;20494;-84
2023/11/08 09:49:54;;;;;;;5.40;1.20;;;;;;;8.35;100.00;153505.06;4963040;28;20481;-84
2023/11/08 09:52:22;;;;;;;2.20;1.10;;;;;;;8.34;100.00;153502.47;4947825;28;20458;-84
2023/11/08 09:54:49;;;;;;;1.80;0.90;;;;;;;8.36;100.00;153507.69;4965164;28;20454;-84
2023/11/08 09:57:16;;;;;;;1.23;0.70;;;;;;;8.42;100.00;153521.84;4965350;28;20458;-85
2023/11/08 09:59:42;;;;;;;1.13;0.80;;;;;;;8.43;100.00;153525.75;4960151;28;20458;-84
2023/11/08 10:02:10;;;;;;;1.53;0.90;;;;;;;8.44;100.00;153527.06;4963077;28;20471;-85
2023/11/08 10:04:36;;;;;;;1.30;0.70;;;;;;;8.45;100.00;153529.63;4968036;28;20825;-84
2023/11/08 10:07:04;;;;;;;1.43;0.93;;;;;;;8.43;100.00;153525.75;4963500;28;20985;-84
2023/11/08 10:09:34;;;;;;;1.30;0.80;;;;;;;8.45;100.00;153529.63;4949400;28;20457;-84
2023/11/08 10:12:02;;;;;;;1.50;0.80;;;;;;;8.51;100.00;153546.44;4959731;28;20477;-84
2023/11/08 10:14:33;;;;;;;4.20;0.90;;;;;;;8.55;100.00;153556.75;4967801;28;20450;-85
2023/11/08 10:17:01;;;;;;;1.63;0.90;;;;;;;8.53;100.00;153551.59;4963120;28;20557;-84
2023/11/08 10:19:38;;;;;;;1.53;0.70;;;;;;;8.54;100.00;153552.91;4965584;28;20983;-84
2023/11/08 10:22:05;;;;;;;2.30;1.10;;;;;;;8.57;100.00;153560.66;4968036;28;20781;-84
2023/11/08 10:24:33;;;;;;;1.50;0.97;;;;;;;8.58;100.00;153563.22;4967952;28;20454;-84
2023/11/08 10:27:10;;;;;;;3.23;1.27;;;;;;;8.57;100.00;153561.97;4965980;28;21019;-84
2023/11/08 10:29:37;;;;;;;3.10;1.00;;;;;;;8.54;100.00;153554.19;4965248;28;20512;-84
2023/11/08 10:32:18;;;;;;;1.73;0.83;;;;;;;8.52;100.00;153547.75;4964056;28;20458;-84
2023/11/08 10:34:44;;;;;;;2.23;0.93;;;;;;;8.51;100.00;153546.44;4966179;28;21004;-84
2023/11/08 10:37:22;;;;;;;1.30;0.80;;;;;;;8.51;100.00;153546.44;4966080;28;20476;-84
2023/11/08 10:39:51;;;;;;;1.77;1.00;;;;;;;8.56;100.00;153559.38;4967275;28;20461;-84
2023/11/08 10:42:17;;;;;;;2.17;1.17;;;;;;;8.61;100.00;153569.69;4966480;28;20458;-84
2023/11/08 10:44:44;;;;;;;1.30;0.80;;;;;;;8.60;100.00;153568.44;4960260;28;20458;-84
2023/11/08 10:47:12;;;;;;;1.93;1.13;;;;;;;8.60;100.00;153568.44;4964483;28;20490;-84
2023/11/08 10:49:40;;;;;;;1.40;0.80;;;;;;;8.66;100.00;153582.66;4963512;28;20450;-84
2023/11/08 10:52:10;;;;;;;2.00;0.90;;;;;;;8.69;100.00;153590.38;4961317;28;20455;-84
2023/11/08 10:54:39;;;;;;;1.83;0.77;;;;;;;8.72;100.00;153599.44;4965102;28;20459;-84
2023/11/08 10:57:07;;;;;;;1.60;0.60;;;;;;;8.76;100.00;153609.81;4964235;28;20450;-84
2023/11/08 10:59:36;;;;;;;1.83;1.30;;;;;;;8.79;100.00;153617.50;4964567;28;20532;-84
2023/11/08 11:02:14;;;;;;;1.27;0.80;;;;;;;8.83;100.00;153627.88;4965074;28;20553;-84
2023/11/08 11:04:42;;;;;;;2.13;1.00;;;;;;;8.83;100.00;153626.59;4981265;28;20462;-84
2023/11/08 11:07:11;;;;;;;1.50;0.70;;;;;;;8.86;100.00;153635.66;4964086;28;20505;-84
2023/11/08 11:09:37;;;;;;;2.00;0.77;;;;;;;8.87;100.00;153636.94;4964746;28;20442;-85
2023/11/08 11:12:14;;;;;;;2.23;0.90;;;;;;;8.87;100.00;153636.94;4964906;28;20458;-85
2023/11/08 11:14:45;;;;;;;1.60;0.90;;;;;;;8.89;100.00;153643.41;4963149;28;20973;-85
2023/11/08 11:17:17;;;;;;;2.10;0.90;;;;;;;8.99;100.00;153667.97;4966873;28;20516;-84
2023/11/08 11:19:45;;;;;;;1.63;0.70;;;;;;;9.08;100.00;153691.25;4979440;28;20970;-86
2023/11/08 11:22:15;;;;;;;1.20;0.70;;;;;;;9.10;100.00;153696.41;4980619;28;20470;-85
2023/11/08 11:24:45;;;;;;;1.27;0.70;;;;;;;9.12;100.00;153701.59;4965678;28;20454;-84
2023/11/08 11:27:32;;;;;;;1.70;1.10;;;;;;;9.17;100.00;153714.50;4963944;28;20577;-84
2023/11/08 11:30:28;;;;;;;2.63;1.00;;;;;;;9.19;100.00;153719.69;4964937;28;20455;-85